createdAt,value
2023-02-11T00:03:28.568Z,5.10
2023-02-11T00:08:30.639Z,4.55
2023-02-11T00:13:32.767Z,4.82
2023-02-11T00:18:36.374Z,5.07
2023-02-11T00:23:38.816Z,4.20
2023-02-11T00:28:41.241Z,4.70
2023-02-11T00:33:46.817Z,4.80
2023-02-11T00:38:49.994Z,4.20
2023-02-11T00:43:52.583Z,5.10
2023-02-11T00:48:58.089Z,4.72
2023-02-11T00:54:00.150Z,4.47
2023-02-11T00:59:02.151Z,4.93
2023-02-11T01:04:15.783Z,4.60
2023-02-11T01:09:18.556Z,5.25
2023-02-11T01:14:20.652Z,4.72
2023-02-11T01:19:24.944Z,4.60
2023-02-11T01:24:27.064Z,4.55
2023-02-11T01:29:29.137Z,4.55
2023-02-11T01:34:31.229Z,4.15
2023-02-11T01:39:34.750Z,4.32
2023-02-11T01:44:39.195Z,4.55
2023-02-11T01:49:45.996Z,4.35
2023-02-11T01:55:12.566Z,4.20
2023-02-11T02:00:24.291Z,4.22
2023-02-11T02:05:42.820Z,4.05
2023-02-11T02:10:48.277Z,4.47
2023-02-11T02:15:55.654Z,4.22
2023-02-11T02:21:29.115Z,3.88
2023-02-11T02:27:08.020Z,4.10
2023-02-11T02:32:31.950Z,4.32
2023-02-11T02:37:51.251Z,4.28
2023-02-11T02:42:54.118Z,4.13
2023-02-11T02:47:56.391Z,4.38
2023-02-11T02:53:20.314Z,3.88
2023-02-11T02:58:40.518Z,3.88
2023-02-11T03:03:47.770Z,3.78
2023-02-11T03:08:59.695Z,3.72
2023-02-11T03:14:04.749Z,3.80
2023-02-11T03:19:15.423Z,4.37
2023-02-11T03:24:24.385Z,3.95
2023-02-11T03:29:36.767Z,3.70
2023-02-11T03:35:00.095Z,3.60
2023-02-11T03:40:13.651Z,3.88
2023-02-11T03:45:19.535Z,3.75
2023-02-11T03:55:27.525Z,3.45
2023-02-11T04:00:35.261Z,3.83
2023-02-11T04:05:38.214Z,3.95
2023-02-11T04:10:40.313Z,3.92
2023-02-11T04:15:42.426Z,3.53
2023-02-11T04:20:44.403Z,3.80
2023-02-11T04:25:46.497Z,4.20
2023-02-11T04:30:50.992Z,3.88
2023-02-11T04:35:53.222Z,4.03
2023-02-11T04:40:55.226Z,3.58
2023-02-11T04:45:58.814Z,4.07
2023-02-11T04:51:04.701Z,3.65
2023-02-11T04:56:07.035Z,3.40
2023-02-11T05:01:11.729Z,3.90
2023-02-11T05:06:14.119Z,3.70
2023-02-11T05:11:19.396Z,4.00
2023-02-11T05:16:21.861Z,4.18
2023-02-11T05:21:23.956Z,3.88
2023-02-11T05:26:26.465Z,3.63
2023-02-11T05:31:28.513Z,4.22
2023-02-11T05:36:33.333Z,4.10
2023-02-11T05:41:35.488Z,3.87
2023-02-11T05:46:37.630Z,4.47
2023-02-11T05:51:39.685Z,4.50
2023-02-11T05:56:44.670Z,4.00
2023-02-11T06:01:46.883Z,4.20
2023-02-11T06:06:48.940Z,4.18
2023-02-11T06:11:51.013Z,4.40
2023-02-11T06:16:53.058Z,4.25
2023-02-11T06:21:56.799Z,4.78
2023-02-11T06:26:58.870Z,4.07
2023-02-11T06:32:01.022Z,4.07
2023-02-11T06:37:03.819Z,4.25
2023-02-11T06:42:07.984Z,4.30
2023-02-11T06:47:10.139Z,4.10
2023-02-11T06:52:12.203Z,4.13
2023-02-11T06:57:14.326Z,4.18
2023-02-11T07:02:18.508Z,4.63
2023-02-11T07:07:22.486Z,4.20
2023-02-11T07:12:24.518Z,4.50
2023-02-11T07:17:26.507Z,4.38
2023-02-11T07:22:28.576Z,4.63
2023-02-11T07:27:30.565Z,4.35
2023-02-11T07:32:32.609Z,4.30
2023-02-11T07:37:35.511Z,4.30
2023-02-11T07:42:39.156Z,4.40
2023-02-11T07:47:42.722Z,4.70
2023-02-11T07:52:44.737Z,4.60
2023-02-11T07:57:46.784Z,4.18
2023-02-11T08:02:48.886Z,4.30
2023-02-11T08:07:54.966Z,4.50
2023-02-11T08:12:57.057Z,4.10
2023-02-11T08:17:59.076Z,4.30
2023-02-11T08:23:02.175Z,4.22
2023-02-11T08:28:04.295Z,4.55
2023-02-11T08:33:06.410Z,4.18
2023-02-11T08:38:09.032Z,4.15
2023-02-11T08:43:11.045Z,4.45
2023-02-11T08:48:13.089Z,4.40
2023-02-11T08:53:15.216Z,4.15
2023-02-11T08:58:19.199Z,4.68
2023-02-11T09:03:21.429Z,4.95
2023-02-11T09:08:23.444Z,6.10
2023-02-11T09:13:25.437Z,4.93
2023-02-11T09:18:28.480Z,4.97
2023-02-11T09:23:30.797Z,4.97
2023-02-11T09:28:32.871Z,4.45
2023-02-11T09:33:35.541Z,4.47
2023-02-11T09:38:38.340Z,4.65
2023-02-11T09:43:46.963Z,4.65
2023-02-11T09:48:52.524Z,4.70
2023-02-11T09:54:02.584Z,5.00
2023-02-11T09:59:10.068Z,6.32
2023-02-11T10:04:21.035Z,6.05
2023-02-11T10:09:29.054Z,5.63
2023-02-11T10:14:57.239Z,4.80
2023-02-11T10:20:17.075Z,5.65
2023-02-11T10:25:36.413Z,5.28
2023-02-11T10:30:44.924Z,3.83
2023-02-11T10:35:47.311Z,5.03
2023-02-11T10:40:50.037Z,3.47
2023-02-11T10:45:54.229Z,2.63
2023-02-11T10:51:17.417Z,2.30
2023-02-11T10:56:28.655Z,2.42
2023-02-11T11:01:50.044Z,2.03
2023-02-11T11:06:52.294Z,0.93
2023-02-11T11:11:54.406Z,0.88
2023-02-11T11:16:56.458Z,1.00
2023-02-11T11:21:58.601Z,1.10
2023-02-11T11:27:03.470Z,0.77
2023-02-11T11:32:28.146Z,0.80
2023-02-11T11:37:35.624Z,0.60
2023-02-11T11:42:39.370Z,0.40
2023-02-11T11:47:58.455Z,0.40
2023-02-11T11:53:19.244Z,0.50
2023-02-11T11:58:23.141Z,0.32
2023-02-11T12:03:55.989Z,0.80
2023-02-11T12:09:07.916Z,1.20
2023-02-11T12:14:24.063Z,2.75
2023-02-11T12:24:56.570Z,1.35
2023-02-11T12:30:14.933Z,1.30
2023-02-11T12:35:28.012Z,1.20
2023-02-11T12:40:56.339Z,1.00
2023-02-11T12:46:02.521Z,0.90
2023-02-11T12:51:04.703Z,0.90
2023-02-11T12:56:19.496Z,1.08
2023-02-11T13:01:32.046Z,1.20
2023-02-11T13:07:05.558Z,1.33
2023-02-11T13:12:29.117Z,1.30
2023-02-11T13:17:41.430Z,1.15
2023-02-11T13:23:13.386Z,1.10
2023-02-11T13:28:24.524Z,1.30
2023-02-11T13:33:45.988Z,1.40
2023-02-11T13:38:55.938Z,1.08
2023-02-11T13:44:02.604Z,1.00
2023-02-11T13:49:05.054Z,1.10
2023-02-11T13:54:08.160Z,1.90
2023-02-11T13:59:25.063Z,1.60
2023-02-11T14:04:48.805Z,1.40
2023-02-11T14:09:53.451Z,2.30
2023-02-11T14:15:18.653Z,1.27
2023-02-11T14:20:36.613Z,1.27
2023-02-11T14:25:42.444Z,1.95
2023-02-11T14:36:14.708Z,2.85
2023-02-11T14:41:24.592Z,2.20
2023-02-11T14:46:30.185Z,2.50
2023-02-11T14:51:38.928Z,2.25
2023-02-11T14:56:42.312Z,2.00
2023-02-11T15:01:49.496Z,2.35
2023-02-11T15:06:52.161Z,2.70
2023-02-11T15:11:55.939Z,3.08
2023-02-11T15:17:01.797Z,2.80
2023-02-11T15:27:25.831Z,3.35
2023-02-11T15:32:28.747Z,3.08
2023-02-11T15:37:30.964Z,3.50
2023-02-11T15:42:47.197Z,3.70
2023-02-11T15:47:57.556Z,3.05
2023-02-11T15:53:05.428Z,3.47
2023-02-11T15:58:10.514Z,2.88
2023-02-11T16:03:24.089Z,3.30
2023-02-11T16:08:29.979Z,3.75
2023-02-11T16:13:35.072Z,4.00
2023-02-11T16:18:39.603Z,3.30
2023-02-11T16:23:42.557Z,3.78
2023-02-11T16:28:44.800Z,4.15
2023-02-11T16:33:46.897Z,4.28
2023-02-11T16:38:49.223Z,4.00
2023-02-11T16:43:51.386Z,4.10
2023-02-11T16:48:55.510Z,4.28
2023-02-11T16:53:57.614Z,4.05
2023-02-11T16:59:00.750Z,3.78
2023-02-11T17:04:03.443Z,4.15
2023-02-11T17:09:06.804Z,4.22
2023-02-11T17:14:08.982Z,4.00
2023-02-11T17:19:13.461Z,4.00
2023-02-11T17:24:16.047Z,2.85
2023-02-11T17:29:20.702Z,2.35
2023-02-11T17:34:23.813Z,2.80
2023-02-11T17:39:26.618Z,2.30
2023-02-11T17:44:28.765Z,2.95
2023-02-11T17:49:30.892Z,6.70
2023-02-11T17:54:33.136Z,7.00
2023-02-11T17:59:35.644Z,4.80
2023-02-11T18:04:38.110Z,3.53
2023-02-11T18:09:41.156Z,3.85
2023-02-11T18:14:43.432Z,5.00
2023-02-11T18:19:45.650Z,4.45
2023-02-11T18:24:54.612Z,4.30
2023-02-11T18:29:56.716Z,3.70
2023-02-11T18:34:58.815Z,3.95
2023-02-11T18:40:00.947Z,4.38
2023-02-11T18:45:03.676Z,5.10
2023-02-11T18:50:07.407Z,4.07
2023-02-11T18:55:09.574Z,5.72
2023-02-11T19:00:12.317Z,4.97
2023-02-11T19:05:15.793Z,4.35
2023-02-11T19:10:17.988Z,5.15
2023-02-11T19:15:20.062Z,4.95
2023-02-11T19:20:22.139Z,5.20
2023-02-11T19:25:24.250Z,4.85
2023-02-11T19:30:26.672Z,5.90
2023-02-11T19:35:28.954Z,6.75
2023-02-11T19:40:31.365Z,5.75
2023-02-11T19:45:33.440Z,6.00
2023-02-11T19:50:35.501Z,6.32
2023-02-11T19:55:37.622Z,5.40
2023-02-11T20:00:40.149Z,5.32
2023-02-11T20:05:47.038Z,5.35
2023-02-11T20:10:49.348Z,6.28
2023-02-11T20:15:51.836Z,5.50
2023-02-11T20:20:54.016Z,5.05
2023-02-11T20:25:56.071Z,4.80
2023-02-11T20:30:58.903Z,4.90
2023-02-11T20:36:04.938Z,5.18
2023-02-11T20:41:16.765Z,5.32
2023-02-11T20:46:24.344Z,5.45
2023-02-11T20:51:31.709Z,7.13
2023-02-11T20:56:36.774Z,7.55
2023-02-11T21:01:41.502Z,5.20
2023-02-11T21:06:47.374Z,5.85
2023-02-11T21:11:53.793Z,4.93
2023-02-11T21:16:56.298Z,5.50
2023-02-11T21:22:00.680Z,6.15
2023-02-11T21:27:03.094Z,5.43
2023-02-11T21:32:05.496Z,5.00
2023-02-11T21:37:07.654Z,5.97
2023-02-11T21:42:09.720Z,5.80
2023-02-11T21:47:11.957Z,5.00
2023-02-11T21:52:14.259Z,4.60
2023-02-11T21:57:16.926Z,4.10
2023-02-11T22:02:19.184Z,3.85
2023-02-11T22:07:22.754Z,3.97
2023-02-11T22:12:24.795Z,3.47
2023-02-11T22:17:26.885Z,4.10
2023-02-11T22:22:29.311Z,4.00
2023-02-11T22:27:31.522Z,4.82
2023-02-11T22:32:33.651Z,4.88
2023-02-11T22:37:35.692Z,4.10
2023-02-11T22:42:37.762Z,4.68
2023-02-11T22:47:39.844Z,4.68
2023-02-11T22:52:41.888Z,4.57
2023-02-11T22:57:44.262Z,4.38
2023-02-11T23:02:46.412Z,4.28
2023-02-11T23:07:48.582Z,4.05
2023-02-11T23:12:50.688Z,4.53
2023-02-11T23:17:52.850Z,4.32
2023-02-11T23:22:54.972Z,4.38
2023-02-11T23:27:57.264Z,4.60
2023-02-11T23:32:59.430Z,5.30
2023-02-11T23:38:01.517Z,4.65
2023-02-11T23:43:03.903Z,5.13
2023-02-11T23:48:06.035Z,5.40
2023-02-11T23:53:08.069Z,4.95
2023-02-11T23:58:10.873Z,4.60
